Time;durP1;ratioP1;P1;durP2;ratioP2;P2;SDS_P1;SDS_P2;PMS_P1;PMS_P2;Temp;Humidity;BMP_temperature;BMP_pressure;BME280_temperature;BME280_humidity;BME280_pressure;Samples;Min_cycle;Max_cycle;Signal;HPM_P1;HPM_P2
2022/05/15 00:01:02;;;;;;;7.20;2.45;;;;;20.30;101969.00;;;;5087628;28;20229;-76
2022/05/15 00:03:30;;;;;;;9.32;2.65;;;;;20.30;101973.00;;;;5085626;28;20194;-76
2022/05/15 00:05:59;;;;;;;9.48;3.47;;;;;20.30;101968.00;;;;5090180;28;20195;-76
2022/05/15 00:08:29;;;;;;;8.52;2.78;;;;;20.20;101969.00;;;;5077273;28;20661;-76
2022/05/15 00:10:58;;;;;;;7.43;3.40;;;;;20.20;101966.00;;;;5087292;28;20206;-75
2022/05/15 00:13:27;;;;;;;6.72;2.95;;;;;20.20;101961.00;;;;5088123;28;20209;-76
2022/05/15 00:15:56;;;;;;;9.00;2.63;;;;;20.20;101958.00;;;;5089722;28;20202;-76
2022/05/15 00:18:24;;;;;;;8.35;3.15;;;;;20.20;101960.00;;;;5083185;28;20584;-76
2022/05/15 00:20:52;;;;;;;13.05;2.88;;;;;20.20;101963.00;;;;5073122;28;21540;-76
2022/05/15 00:23:21;;;;;;;9.50;2.70;;;;;20.20;101961.00;;;;5089462;28;20661;-75
2022/05/15 00:25:48;;;;;;;8.82;2.97;;;;;20.10;101957.00;;;;5090142;28;20251;-76
2022/05/15 00:28:17;;;;;;;8.27;3.50;;;;;20.10;101963.00;;;;5088626;28;20202;-76
2022/05/15 00:30:45;;;;;;;11.55;3.38;;;;;20.10;101958.00;;;;5088055;28;20210;-76
2022/05/15 00:33:14;;;;;;;11.70;4.63;;;;;20.10;101956.00;;;;5084510;28;20202;-76
2022/05/15 00:35:41;;;;;;;9.80;2.97;;;;;20.10;101947.00;;;;5089745;28;20190;-76
2022/05/15 00:38:10;;;;;;;8.75;3.45;;;;;20.00;101954.00;;;;5087265;28;20198;-76
2022/05/15 00:40:39;;;;;;;8.10;2.72;;;;;20.00;101948.00;;;;5087679;28;20237;-76
2022/05/15 00:43:09;;;;;;;9.38;3.05;;;;;20.00;101950.00;;;;5085521;28;20648;-76
2022/05/15 00:45:37;;;;;;;10.23;3.17;;;;;20.00;101957.00;;;;5083777;28;20199;-76
2022/05/15 00:48:05;;;;;;;6.50;2.63;;;;;20.00;101955.00;;;;5087171;28;20202;-76
2022/05/15 00:50:38;;;;;;;8.88;3.10;;;;;19.90;101944.00;;;;5089350;28;20570;-76
2022/05/15 00:53:10;;;;;;;10.63;3.55;;;;;19.90;101944.00;;;;5087795;28;20244;-76
2022/05/15 00:55:41;;;;;;;9.73;3.53;;;;;19.90;101940.00;;;;5088301;28;20214;-75
2022/05/15 00:58:13;;;;;;;9.13;2.88;;;;;19.80;101943.00;;;;5083292;28;20252;-76
2022/05/15 01:00:43;;;;;;;11.95;3.38;;;;;19.80;101952.00;;;;5083966;28;20222;-77
2022/05/15 01:03:14;;;;;;;8.27;2.95;;;;;19.80;101941.00;;;;5084565;28;20199;-76
2022/05/15 01:05:44;;;;;;;5.82;2.40;;;;;19.70;101951.00;;;;5089508;28;20198;-76
2022/05/15 01:08:12;;;;;;;7.50;2.70;;;;;19.70;101946.00;;;;5083024;28;20197;-76
2022/05/15 01:10:41;;;;;;;7.43;2.50;;;;;19.70;101945.00;;;;5087025;28;20197;-75
2022/05/15 01:13:10;;;;;;;8.10;2.45;;;;;19.70;101944.00;;;;5077273;28;20190;-76
2022/05/15 01:15:39;;;;;;;7.72;2.33;;;;;19.70;101929.00;;;;5090416;28;20198;-75
2022/05/15 01:18:09;;;;;;;7.78;3.40;;;;;19.70;101935.00;;;;5086286;28;20289;-76
2022/05/15 01:20:37;;;;;;;9.02;3.20;;;;;19.70;101936.00;;;;5087855;28;20305;-76
2022/05/15 01:23:06;;;;;;;8.48;2.75;;;;;19.70;101939.00;;;;5087553;28;20212;-76
2022/05/15 01:25:37;;;;;;;6.57;2.00;;;;;19.70;101936.00;;;;5087365;28;20206;-76
2022/05/15 01:28:06;;;;;;;7.78;2.85;;;;;19.70;101934.00;;;;5088219;28;20283;-76
2022/05/15 01:30:35;;;;;;;7.70;2.83;;;;;19.60;101940.00;;;;5089185;28;20293;-75
2022/05/15 01:33:03;;;;;;;6.25;2.92;;;;;19.60;101935.00;;;;5081030;28;20203;-75
2022/05/15 01:35:31;;;;;;;9.23;2.63;;;;;19.60;101934.00;;;;5081114;28;20202;-76
2022/05/15 01:37:58;;;;;;;7.88;3.30;;;;;19.60;101936.00;;;;5082665;28;20318;-75
2022/05/15 01:40:27;;;;;;;9.85;3.08;;;;;19.60;101930.00;;;;5086565;28;20226;-75
2022/05/15 01:42:54;;;;;;;10.15;4.10;;;;;19.60;101938.00;;;;5080651;28;20203;-76
2022/05/15 01:45:22;;;;;;;9.68;2.60;;;;;19.60;101935.00;;;;5088810;28;20198;-75
2022/05/15 01:47:50;;;;;;;11.27;3.15;;;;;19.60;101927.00;;;;5086683;28;20206;-75
2022/05/15 01:50:18;;;;;;;13.85;3.30;;;;;19.60;101925.00;;;;5080915;28;20289;-76
2022/05/15 01:52:46;;;;;;;11.73;2.85;;;;;19.50;101931.00;;;;5087346;28;20738;-75
2022/05/15 01:55:14;;;;;;;12.85;3.47;;;;;19.50;101938.00;;;;5086747;28;20194;-75
2022/05/15 01:57:43;;;;;;;7.38;2.67;;;;;19.50;101935.00;;;;5087351;28;20198;-75
2022/05/15 02:00:15;;;;;;;9.63;2.75;;;;;19.40;101921.00;;;;5086279;28;20251;-76
2022/05/15 02:02:43;;;;;;;6.78;2.38;;;;;19.50;101924.00;;;;5085983;28;20194;-76
2022/05/15 02:05:10;;;;;;;11.48;2.97;;;;;19.50;101929.00;;;;5087402;28;20202;-75
2022/05/15 02:07:38;;;;;;;12.95;2.55;;;;;19.40;101920.00;;;;5088201;28;20205;-76
2022/05/15 02:10:07;;;;;;;13.35;3.42;;;;;19.40;101928.00;;;;5087692;28;20260;-76
2022/05/15 02:12:34;;;;;;;10.02;3.58;;;;;19.40;101915.00;;;;5082714;28;20198;-76
2022/05/15 02:15:04;;;;;;;11.73;3.30;;;;;19.40;101918.00;;;;5086187;28;20202;-76
2022/05/15 02:17:32;;;;;;;9.52;3.22;;;;;19.40;101918.00;;;;5088835;28;20613;-76
2022/05/15 02:19:59;;;;;;;10.30;2.90;;;;;19.40;101920.00;;;;5087674;28;20205;-75
2022/05/15 02:22:26;;;;;;;5.43;2.38;;;;;19.40;101921.00;;;;5087148;28;21706;-75
2022/05/15 02:24:54;;;;;;;6.47;3.05;;;;;19.40;101922.00;;;;5073745;28;20485;-75
2022/05/15 02:27:21;;;;;;;7.13;3.08;;;;;19.40;101919.00;;;;5084547;28;20202;-75
2022/05/15 02:29:49;;;;;;;6.95;3.08;;;;;19.40;101917.00;;;;5088524;28;20206;-76
2022/05/15 02:32:18;;;;;;;9.65;2.50;;;;;19.30;101913.00;;;;5087391;28;20210;-75
2022/05/15 02:34:45;;;;;;;9.48;2.70;;;;;19.30;101901.00;;;;5082860;28;20198;-75
2022/05/15 02:37:12;;;;;;;12.43;2.28;;;;;19.30;101903.00;;;;5087181;28;20198;-76
2022/05/15 02:39:40;;;;;;;8.73;2.63;;;;;19.30;101908.00;;;;5078362;28;20225;-76
2022/05/15 02:42:07;;;;;;;9.07;3.20;;;;;19.30;101912.00;;;;5081175;28;20595;-76
2022/05/15 02:44:34;;;;;;;11.68;2.58;;;;;19.30;101914.00;;;;5085089;28;20231;-75
2022/05/15 02:47:02;;;;;;;8.50;2.60;;;;;19.30;101918.00;;;;5077398;28;20205;-76
2022/05/15 02:52:16;;;;;;;10.63;2.70;;;;;19.20;101916.00;;;;5088602;28;20225;-73
2022/05/15 02:54:44;;;;;;;7.97;2.60;;;;;19.20;101913.00;;;;5086628;28;20281;-73
2022/05/15 02:57:14;;;;;;;8.68;2.38;;;;;19.20;101912.00;;;;5084639;28;20269;-73
2022/05/15 02:59:42;;;;;;;12.10;4.15;;;;;19.20;101918.00;;;;5086481;28;20209;-73
2022/05/15 03:02:09;;;;;;;10.23;3.13;;;;;19.20;101912.00;;;;5086090;28;20594;-74
2022/05/15 03:04:38;;;;;;;5.95;2.55;;;;;19.20;101915.00;;;;5086325;28;20201;-75
2022/05/15 03:07:08;;;;;;;8.90;3.05;;;;;19.20;101908.00;;;;5082006;28;20256;-74
2022/05/15 03:09:35;;;;;;;8.00;2.30;;;;;19.20;101912.00;;;;5086575;28;20634;-74
2022/05/15 03:12:03;;;;;;;8.25;2.63;;;;;19.20;101913.00;;;;5085490;28;20579;-74
2022/05/15 03:14:30;;;;;;;8.05;2.53;;;;;19.20;101902.00;;;;5086716;28;20186;-74
2022/05/15 03:16:57;;;;;;;9.32;2.85;;;;;19.10;101893.00;;;;5076819;28;20230;-74
2022/05/15 03:19:25;;;;;;;12.73;2.63;;;;;19.10;101895.00;;;;5078601;28;20206;-74
2022/05/15 03:21:53;;;;;;;6.97;2.33;;;;;19.10;101897.00;;;;5077171;28;20234;-75
2022/05/15 03:24:20;;;;;;;6.18;2.70;;;;;19.10;101896.00;;;;5084135;28;20712;-75
2022/05/15 03:26:49;;;;;;;8.48;2.38;;;;;19.10;101890.00;;;;5090309;28;20191;-74
2022/05/15 03:29:19;;;;;;;7.65;2.63;;;;;19.10;101887.00;;;;5087013;28;20201;-74
2022/05/15 03:31:46;;;;;;;8.73;2.75;;;;;19.10;101888.00;;;;5076020;28;20206;-75
2022/05/15 03:34:16;;;;;;;11.10;2.78;;;;;19.00;101886.00;;;;5083035;28;20202;-75
2022/05/15 03:36:45;;;;;;;6.28;2.33;;;;;19.00;101881.00;;;;5091385;28;20679;-75
2022/05/15 03:39:16;;;;;;;8.85;2.42;;;;;19.00;101878.00;;;;5085817;28;20205;-74
2022/05/15 03:41:43;;;;;;;9.95;2.95;;;;;19.00;101881.00;;;;5087309;28;20227;-74
2022/05/15 03:44:11;;;;;;;6.32;1.98;;;;;19.00;101881.00;;;;5081048;28;20199;-74
2022/05/15 03:46:39;;;;;;;11.80;2.88;;;;;19.00;101879.00;;;;5085070;28;20199;-74
2022/05/15 03:49:06;;;;;;;5.95;2.40;;;;;19.00;101883.00;;;;5078684;28;20574;-74
2022/05/15 03:51:34;;;;;;;13.23;2.80;;;;;19.00;101877.00;;;;5089975;28;20746;-75
2022/05/15 03:54:01;;;;;;;11.23;2.38;;;;;19.00;101877.00;;;;5089269;28;20579;-74
2022/05/15 03:59:15;;;;;;;7.55;2.05;;;;;19.00;101881.00;;;;5079947;28;20325;-75
2022/05/15 04:01:42;;;;;;;11.27;3.17;;;;;19.00;101875.00;;;;5085086;28;20612;-74
2022/05/15 04:04:10;;;;;;;8.23;2.90;;;;;18.90;101864.00;;;;5090106;28;20194;-74
2022/05/15 04:06:37;;;;;;;7.35;2.03;;;;;19.00;101873.00;;;;5091233;28;20197;-74
2022/05/15 04:09:06;;;;;;;8.95;2.70;;;;;18.90;101861.00;;;;5087229;28;20205;-74
2022/05/15 04:11:35;;;;;;;11.18;2.70;;;;;18.90;101865.00;;;;5087865;28;20256;-74
2022/05/15 04:14:03;;;;;;;6.15;2.20;;;;;18.90;101870.00;;;;5078851;28;20213;-74
2022/05/15 04:16:30;;;;;;;6.88;2.13;;;;;18.90;101869.00;;;;5090664;28;20202;-74
2022/05/15 04:18:58;;;;;;;7.45;2.40;;;;;18.90;101870.00;;;;5082693;28;20195;-74
2022/05/15 04:21:25;;;;;;;5.35;2.70;;;;;19.00;101873.00;;;;5087605;28;20229;-75
2022/05/15 04:23:53;;;;;;;7.03;2.17;;;;;18.90;101875.00;;;;5073865;28;20582;-74
2022/05/15 04:26:20;;;;;;;7.57;2.40;;;;;19.00;101874.00;;;;5087006;28;20195;-74
2022/05/15 04:28:49;;;;;;;6.55;2.20;;;;;19.00;101884.00;;;;5085489;28;20201;-74
2022/05/15 04:31:16;;;;;;;9.18;2.67;;;;;19.00;101875.00;;;;5084359;28;20968;-74
2022/05/15 04:33:44;;;;;;;11.00;2.10;;;;;19.00;101872.00;;;;5075681;28;20202;-74
2022/05/15 04:36:11;;;;;;;6.57;2.58;;;;;19.00;101870.00;;;;5082961;28;20202;-74
2022/05/15 04:38:38;;;;;;;9.25;2.40;;;;;19.10;101870.00;;;;5085544;28;20213;-74
2022/05/15 04:41:06;;;;;;;5.90;2.80;;;;;19.10;101875.00;;;;5087113;28;20230;-74
2022/05/15 04:43:33;;;;;;;7.75;2.72;;;;;19.10;101878.00;;;;5084170;28;20194;-74
2022/05/15 04:46:03;;;;;;;6.70;2.30;;;;;19.10;101877.00;;;;5089838;28;20201;-74
2022/05/15 04:48:30;;;;;;;7.07;2.25;;;;;19.10;101886.00;;;;5079192;28;20226;-74
2022/05/15 04:50:58;;;;;;;7.88;2.45;;;;;19.20;101892.00;;;;5081659;28;20201;-75
2022/05/15 04:53:27;;;;;;;9.38;2.40;;;;;19.20;101884.00;;;;5088330;28;20700;-74
2022/05/15 04:55:54;;;;;;;6.55;2.58;;;;;19.20;101881.00;;;;5069666;28;20640;-74
2022/05/15 04:58:21;;;;;;;7.03;2.15;;;;;19.20;101884.00;;;;5077477;28;20182;-74
2022/05/15 05:00:49;;;;;;;6.13;2.33;;;;;19.20;101891.00;;;;5085033;28;20202;-74
2022/05/15 05:03:18;;;;;;;7.25;2.35;;;;;19.20;101894.00;;;;5086717;28;20214;-75
2022/05/15 05:05:45;;;;;;;9.05;2.80;;;;;19.30;101892.00;;;;5084633;28;20210;-75
2022/05/15 05:08:13;;;;;;;5.40;2.05;;;;;19.30;101897.00;;;;5086831;28;20206;-75
2022/05/15 05:10:41;;;;;;;5.78;2.30;;;;;19.30;101907.00;;;;5088097;28;20213;-75
2022/05/15 05:13:09;;;;;;;9.30;2.50;;;;;19.40;101907.00;;;;5086631;28;20206;-75
2022/05/15 05:15:36;;;;;;;6.78;2.55;;;;;19.40;101903.00;;;;5085854;28;20207;-75
2022/05/15 05:18:03;;;;;;;11.65;2.83;;;;;19.40;101903.00;;;;5088518;28;20205;-75
2022/05/15 05:20:32;;;;;;;13.30;3.08;;;;;19.50;101908.00;;;;5081495;28;20807;-75
2022/05/15 05:23:00;;;;;;;11.85;2.92;;;;;19.60;101902.00;;;;5083989;28;20229;-75
2022/05/15 05:25:27;;;;;;;6.80;2.22;;;;;19.60;101893.00;;;;5082942;28;20195;-75
2022/05/15 05:27:54;;;;;;;6.85;2.78;;;;;19.60;101907.00;;;;5084976;28;20202;-76
2022/05/15 05:30:25;;;;;;;5.97;2.30;;;;;19.70;101896.00;;;;5087414;28;20695;-76
2022/05/15 05:32:52;;;;;;;6.03;1.92;;;;;19.80;101895.00;;;;5083293;28;20202;-76
2022/05/15 05:35:22;;;;;;;9.48;2.88;;;;;19.80;101903.00;;;;5086847;28;20210;-76
2022/05/15 05:37:52;;;;;;;6.45;2.20;;;;;19.80;101898.00;;;;5085570;28;20198;-76
2022/05/15 05:40:20;;;;;;;8.98;2.75;;;;;20.00;101898.00;;;;5086196;28;20233;-76
2022/05/15 05:42:48;;;;;;;9.40;2.70;;;;;20.00;101900.00;;;;5086727;28;20238;-76
2022/05/15 05:45:15;;;;;;;8.32;2.60;;;;;20.10;101906.00;;;;5087184;28;20605;-76
2022/05/15 05:47:45;;;;;;;9.07;2.70;;;;;20.10;101898.00;;;;5084647;28;20194;-76
2022/05/15 05:50:12;;;;;;;12.55;2.53;;;;;20.20;101896.00;;;;5083568;28;20644;-76
2022/05/15 05:52:40;;;;;;;9.43;3.28;;;;;20.30;101895.00;;;;5088031;28;21042;-76
2022/05/15 05:55:12;;;;;;;9.85;2.92;;;;;20.30;101894.00;;;;5083571;28;20202;-76
2022/05/15 05:57:42;;;;;;;9.05;2.83;;;;;20.40;101892.00;;;;5074452;28;20186;-75
2022/05/15 06:00:15;;;;;;;9.85;3.10;;;;;20.40;101900.00;;;;5077893;28;20277;-76
2022/05/15 06:02:43;;;;;;;9.82;2.72;;;;;20.50;101906.00;;;;5087356;28;20222;-76
2022/05/15 06:05:10;;;;;;;8.82;3.28;;;;;20.60;101902.00;;;;5087959;28;20198;-75
2022/05/15 06:07:38;;;;;;;15.23;3.92;;;;;20.60;101900.00;;;;5081951;28;20202;-76
2022/05/15 06:10:09;;;;;;;10.98;3.08;;;;;20.60;101895.00;;;;5078459;28;20322;-76
2022/05/15 06:12:40;;;;;;;7.25;2.33;;;;;20.70;101905.00;;;;5083523;28;20235;-76
2022/05/15 06:15:09;;;;;;;6.72;2.35;;;;;20.70;101897.00;;;;5086675;28;20674;-75
2022/05/15 06:17:36;;;;;;;8.27;2.72;;;;;20.80;101893.00;;;;5075106;28;20202;-77
2022/05/15 06:20:08;;;;;;;6.47;2.33;;;;;20.90;101893.00;;;;5086448;28;20223;-77
2022/05/15 06:22:35;;;;;;;7.30;2.70;;;;;20.90;101897.00;;;;5079499;28;20226;-77
2022/05/15 06:25:03;;;;;;;12.80;3.53;;;;;21.00;101895.00;;;;5088527;28;20651;-77
2022/05/15 06:27:31;;;;;;;7.55;3.20;;;;;21.10;101896.00;;;;5084373;28;20197;-77
2022/05/15 06:29:59;;;;;;;7.95;4.07;;;;;21.20;101901.00;;;;5075885;28;20190;-77
2022/05/15 06:32:26;;;;;;;12.23;4.10;;;;;21.30;101908.00;;;;5080556;28;20201;-77
2022/05/15 06:34:54;;;;;;;8.57;3.55;;;;;21.40;101904.00;;;;5087480;28;20233;-77
2022/05/15 06:37:21;;;;;;;7.15;3.03;;;;;21.40;101904.00;;;;5084930;28;20198;-77
2022/05/15 06:39:48;;;;;;;8.10;3.05;;;;;21.50;101908.00;;;;5081922;28;20234;-75
2022/05/15 06:42:16;;;;;;;8.40;3.58;;;;;21.60;101898.00;;;;5074408;28;20225;-76
2022/05/15 06:44:45;;;;;;;8.43;3.10;;;;;21.70;101908.00;;;;5081349;28;20591;-76
2022/05/15 06:47:12;;;;;;;7.00;2.72;;;;;21.80;101903.00;;;;5076205;28;20223;-76
2022/05/15 06:49:39;;;;;;;10.65;3.50;;;;;21.90;101906.00;;;;5078971;28;20620;-76
2022/05/15 06:52:07;;;;;;;7.25;3.33;;;;;22.00;101906.00;;;;5081956;28;20260;-75
2022/05/15 06:54:34;;;;;;;7.28;2.92;;;;;22.10;101910.00;;;;5076890;28;20202;-76
2022/05/15 06:59:48;;;;;;;7.43;3.15;;;;;22.30;101911.00;;;;5089216;28;20216;-75
2022/05/15 07:02:16;;;;;;;7.15;2.72;;;;;22.50;101913.00;;;;5082924;28;20226;-76
2022/05/15 07:04:43;;;;;;;9.05;3.10;;;;;22.60;101910.00;;;;5084579;28;20186;-76
2022/05/15 07:07:10;;;;;;;10.30;2.65;;;;;22.70;101911.00;;;;5090769;28;20202;-76
2022/05/15 07:09:38;;;;;;;6.05;2.70;;;;;22.80;101908.00;;;;5073515;28;20203;-76
2022/05/15 07:12:07;;;;;;;5.20;3.05;;;;;22.90;101909.00;;;;5082827;28;20259;-76
2022/05/15 07:14:35;;;;;;;6.68;2.63;;;;;23.00;101910.00;;;;5085164;28;20290;-76
2022/05/15 07:17:04;;;;;;;5.53;3.00;;;;;23.10;101905.00;;;;5089301;28;20583;-76
2022/05/15 07:19:32;;;;;;;8.85;3.45;;;;;23.30;101905.00;;;;5087288;28;20244;-76
2022/05/15 07:21:59;;;;;;;8.52;3.58;;;;;23.40;101901.00;;;;5080847;28;20229;-76
2022/05/15 07:24:27;;;;;;;7.10;2.88;;;;;23.50;101899.00;;;;5076234;28;20195;-76
2022/05/15 07:26:55;;;;;;;6.50;2.38;;;;;23.70;101908.00;;;;5074723;28;20710;-76
2022/05/15 07:29:24;;;;;;;4.55;2.05;;;;;23.80;101902.00;;;;5089754;28;20202;-76
2022/05/15 07:31:52;;;;;;;8.40;3.53;;;;;24.00;101911.00;;;;5077211;28;20664;-76
2022/05/15 07:34:21;;;;;;;8.25;3.20;;;;;24.10;101914.00;;;;5087952;28;20664;-76
2022/05/15 07:36:50;;;;;;;12.88;3.33;;;;;24.30;101917.00;;;;5083817;28;20237;-76
2022/05/15 07:39:19;;;;;;;7.70;3.28;;;;;24.40;101917.00;;;;5078419;28;20291;-77
2022/05/15 07:41:46;;;;;;;7.88;2.90;;;;;24.50;101910.00;;;;5079419;28;20252;-77
2022/05/15 07:44:14;;;;;;;8.75;2.67;;;;;24.70;101909.00;;;;5085274;28;20673;-77
2022/05/15 07:46:41;;;;;;;6.32;2.90;;;;;24.80;101910.00;;;;5079313;28;20221;-77
2022/05/15 07:49:09;;;;;;;9.30;2.63;;;;;24.90;101905.00;;;;5084780;28;20208;-76
2022/05/15 07:51:44;;;;;;;6.40;2.75;;;;;25.00;101910.00;;;;5088046;28;20221;-76
2022/05/15 07:54:12;;;;;;;7.50;2.50;;;;;25.20;101908.00;;;;5081008;28;20205;-75
2022/05/15 07:56:39;;;;;;;6.57;2.90;;;;;25.30;101913.00;;;;5074908;28;20286;-76
2022/05/15 07:59:06;;;;;;;9.38;2.67;;;;;25.50;101908.00;;;;5071847;28;20249;-76
2022/05/15 08:01:34;;;;;;;6.22;2.80;;;;;25.60;101905.00;;;;5089930;28;20675;-76
2022/05/15 08:04:01;;;;;;;10.38;2.60;;;;;25.80;101907.00;;;;5090474;28;20210;-76
2022/05/15 08:09:15;;;;;;;7.45;2.78;;;;;26.00;101909.00;;;;5088906;28;20754;-76
2022/05/15 08:11:42;;;;;;;11.00;3.13;;;;;26.20;101905.00;;;;5088601;28;20220;-76
2022/05/15 08:14:11;;;;;;;6.18;3.05;;;;;26.30;101905.00;;;;5089315;28;20198;-76
2022/05/15 08:16:38;;;;;;;7.50;2.72;;;;;26.50;101904.00;;;;5088559;28;20939;-76
2022/05/15 08:24:41;;;;;;;5.93;3.28;;;;;26.90;101903.00;;;;5087545;28;20210;-76
2022/05/15 08:27:09;;;;;;;6.95;2.35;;;;;27.10;101901.00;;;;5090813;28;20654;-76
2022/05/15 08:29:37;;;;;;;8.13;2.97;;;;;27.30;101901.00;;;;5090463;28;20273;-76
2022/05/15 08:32:05;;;;;;;5.10;2.83;;;;;27.50;101901.00;;;;5089734;28;20199;-76
2022/05/15 08:34:33;;;;;;;3.83;2.30;;;;;27.60;101895.00;;;;5090303;28;20197;-76
2022/05/15 08:37:01;;;;;;;4.95;3.00;;;;;27.80;101892.00;;;;5087887;28;20637;-76
2022/05/15 08:39:29;;;;;;;6.57;3.13;;;;;27.90;101883.00;;;;5087251;28;20309;-76
2022/05/15 08:42:09;;;;;;;6.28;2.80;;;;;28.10;101888.00;;;;5081910;28;20199;-78
2022/05/15 08:44:43;;;;;;;7.38;2.42;;;;;28.30;101880.00;;;;5087565;28;20194;-77
2022/05/15 08:47:18;;;;;;;4.45;2.60;;;;;28.40;101879.00;;;;5086716;28;20198;-77
2022/05/15 08:49:51;;;;;;;7.25;2.85;;;;;28.60;101876.00;;;;5080700;28;20214;-76
2022/05/15 08:52:25;;;;;;;7.72;2.80;;;;;28.70;101874.00;;;;5084075;28;20219;-76
2022/05/15 08:54:57;;;;;;;11.23;3.17;;;;;28.90;101860.00;;;;5068546;28;20214;-76
2022/05/15 08:57:39;;;;;;;4.57;2.80;;;;;28.90;101859.00;;;;5069906;28;20194;-76
2022/05/15 09:00:11;;;;;;;4.68;2.42;;;;;29.10;101870.00;;;;5085234;28;20202;-76
2022/05/15 09:02:41;;;;;;;6.15;2.33;;;;;29.20;101871.00;;;;5088601;28;20222;-76
2022/05/15 09:05:09;;;;;;;4.28;2.10;;;;;29.30;101862.00;;;;5089055;28;20460;-76
2022/05/15 09:08:01;;;;;;;3.25;2.35;;;;;29.40;101860.00;;;;5089109;28;20202;-76
2022/05/15 09:10:37;;;;;;;7.50;2.70;;;;;29.50;101870.00;;;;5082565;28;20194;-76
2022/05/15 09:13:11;;;;;;;8.18;2.60;;;;;29.60;101870.00;;;;5088194;28;20201;-76
2022/05/15 09:15:45;;;;;;;7.47;2.60;;;;;29.70;101872.00;;;;5074087;28;20194;-76
2022/05/15 09:18:18;;;;;;;4.07;2.50;;;;;29.70;101872.00;;;;5089237;28;20200;-76
2022/05/15 09:20:58;;;;;;;5.13;2.80;;;;;29.80;101881.00;;;;5083237;28;20203;-76
2022/05/15 09:23:29;;;;;;;4.85;2.17;;;;;30.00;101872.00;;;;5071973;28;20222;-76
2022/05/15 09:25:58;;;;;;;3.90;2.47;;;;;30.10;101860.00;;;;5069032;28;20210;-76
2022/05/15 09:28:28;;;;;;;9.48;2.85;;;;;30.20;101859.00;;;;5068881;28;20210;-76
2022/05/15 09:30:58;;;;;;;5.93;2.78;;;;;30.30;101870.00;;;;5084951;28;20567;-76
2022/05/15 09:33:33;;;;;;;6.75;2.60;;;;;30.30;101869.00;;;;5087452;28;20201;-76
2022/05/15 09:36:22;;;;;;;5.63;2.65;;;;;30.30;101869.00;;;;5087008;28;20638;-76
2022/05/15 09:38:51;;;;;;;7.55;2.60;;;;;30.50;101859.00;;;;5086838;28;20201;-76
2022/05/15 09:44:08;;;;;;;5.15;2.40;;;;;30.60;101855.00;;;;5082240;28;20287;-76
2022/05/15 09:46:39;;;;;;;6.03;2.58;;;;;30.70;101849.00;;;;5080684;28;20278;-76
2022/05/15 09:49:17;;;;;;;3.63;2.38;;;;;30.70;101849.00;;;;5070197;28;20707;-77
2022/05/15 09:51:47;;;;;;;4.53;2.25;;;;;30.90;101842.00;;;;5087633;28;20226;-76
2022/05/15 09:54:30;;;;;;;8.40;3.03;;;;;30.80;101842.00;;;;5081292;28;20195;-76
2022/05/15 09:57:14;;;;;;;8.20;2.42;;;;;30.90;101841.00;;;;5080718;28;20243;-76
2022/05/15 09:59:44;;;;;;;5.55;2.00;;;;;31.00;101838.00;;;;5087497;28;20197;-76
2022/05/15 10:02:20;;;;;;;5.15;2.42;;;;;31.10;101845.00;;;;5068525;28;20212;-77
2022/05/15 10:04:53;;;;;;;3.80;1.83;;;;;31.20;101844.00;;;;5068898;28;20571;-76
2022/05/15 10:07:33;;;;;;;3.05;1.45;;;;;31.20;101842.00;;;;5079989;28;20212;-77
2022/05/15 10:10:17;;;;;;;4.13;1.75;;;;;31.30;101845.00;;;;5072306;28;20298;-77
2022/05/15 10:12:46;;;;;;;4.68;2.30;;;;;31.40;101840.00;;;;5068554;28;20193;-76
2022/05/15 10:15:16;;;;;;;4.65;1.75;;;;;31.50;101836.00;;;;5084247;28;20202;-77
2022/05/15 10:17:51;;;;;;;5.60;1.67;;;;;31.60;101832.00;;;;5089157;28;20202;-76
2022/05/15 10:20:26;;;;;;;3.45;1.80;;;;;31.60;101836.00;;;;5088067;28;20186;-76
2022/05/15 10:23:01;;;;;;;3.85;1.77;;;;;31.70;101835.00;;;;5087401;28;20228;-77
2022/05/15 10:25:38;;;;;;;2.70;1.38;;;;;31.70;101837.00;;;;5068350;28;20190;-77
2022/05/15 10:28:19;;;;;;;3.60;1.80;;;;;31.70;101831.00;;;;5085760;28;20284;-77
2022/05/15 10:30:57;;;;;;;4.65;1.75;;;;;31.70;101833.00;;;;5078510;28;20195;-77
2022/05/15 10:33:24;;;;;;;2.17;1.23;;;;;31.90;101832.00;;;;5069591;28;20252;-78
2022/05/15 10:35:59;;;;;;;3.35;1.92;;;;;31.80;101826.00;;;;5080774;28;20996;-77
2022/05/15 10:38:38;;;;;;;3.55;1.73;;;;;31.90;101822.00;;;;5088616;28;20189;-76
2022/05/15 10:41:15;;;;;;;5.05;2.40;;;;;32.00;101831.00;;;;5086954;28;20229;-77
2022/05/15 10:43:55;;;;;;;5.88;1.92;;;;;32.00;101821.00;;;;5082007;28;20291;-77
2022/05/15 10:46:32;;;;;;;3.67;1.80;;;;;32.00;101825.00;;;;5068333;28;20206;-77
2022/05/15 10:49:15;;;;;;;5.53;1.83;;;;;32.00;101823.00;;;;5082864;28;20201;-76
2022/05/15 10:51:53;;;;;;;3.58;1.40;;;;;32.10;101819.00;;;;5086320;28;20206;-76
2022/05/15 10:57:41;;;;;;;2.72;1.50;;;;;32.20;101817.00;;;;5077430;28;20209;-76
2022/05/15 11:00:15;;;;;;;4.70;1.80;;;;;32.30;101821.00;;;;5070377;28;20199;-76
2022/05/15 11:03:01;;;;;;;5.70;2.00;;;;;32.20;101823.00;;;;5087752;28;20734;-76
2022/05/15 11:05:30;;;;;;;4.93;1.65;;;;;32.30;101820.00;;;;5088684;28;20197;-76
2022/05/15 11:08:18;;;;;;;3.38;1.20;;;;;32.20;101817.00;;;;5087617;28;20194;-77
2022/05/15 11:10:49;;;;;;;4.88;1.13;;;;;32.20;101808.00;;;;5087835;28;20201;-76
2022/05/15 11:13:22;;;;;;;2.15;1.27;;;;;32.20;101805.00;;;;5088300;28;20289;-76
2022/05/15 11:15:57;;;;;;;2.20;1.33;;;;;32.20;101796.00;;;;5087310;28;20252;-76
2022/05/15 11:18:39;;;;;;;6.22;1.60;;;;;32.20;101792.00;;;;5087629;28;20225;-77
2022/05/15 11:21:11;;;;;;;2.20;1.27;;;;;32.30;101796.00;;;;5086375;28;20201;-77
2022/05/15 11:23:45;;;;;;;3.50;1.33;;;;;32.30;101790.00;;;;5082875;28;20222;-76
2022/05/15 11:26:20;;;;;;;5.50;1.80;;;;;32.30;101791.00;;;;5069001;28;20922;-77
2022/05/15 11:28:51;;;;;;;3.28;1.67;;;;;32.40;101787.00;;;;5067596;28;20663;-77
2022/05/15 11:31:22;;;;;;;2.53;1.30;;;;;32.40;101786.00;;;;5071024;28;20247;-76
2022/05/15 11:33:54;;;;;;;3.55;1.85;;;;;32.40;101776.00;;;;5087769;28;20206;-76
2022/05/15 11:36:37;;;;;;;4.97;1.67;;;;;32.40;101775.00;;;;5088393;28;20585;-77
2022/05/15 11:39:22;;;;;;;5.38;1.55;;;;;32.40;101775.00;;;;5080881;28;20624;-76
2022/05/15 11:42:17;;;;;;;5.78;1.88;;;;;32.40;101770.00;;;;5072777;28;20194;-74
2022/05/15 11:44:46;;;;;;;3.78;1.30;;;;;32.50;101764.00;;;;5090641;28;20218;-75
2022/05/15 11:47:34;;;;;;;4.78;1.40;;;;;32.40;101759.00;;;;5078917;28;20684;-76
2022/05/15 11:50:15;;;;;;;2.67;1.25;;;;;32.40;101759.00;;;;5090757;28;20279;-76
2022/05/15 11:53:05;;;;;;;1.63;1.25;;;;;32.30;101759.00;;;;5090930;28;20242;-76
2022/05/15 11:55:45;;;;;;;6.00;1.85;;;;;32.30;101753.00;;;;5084669;28;20700;-76
2022/05/15 11:58:34;;;;;;;6.70;1.70;;;;;32.30;101753.00;;;;5071921;28;20234;-76
2022/05/15 12:01:40;;;;;;;3.75;2.03;;;;;32.20;101752.00;;;;5076275;28;20202;-76
2022/05/15 12:04:10;;;;;;;2.85;1.38;;;;;32.30;101747.00;;;;5070614;28;20283;-77
2022/05/15 12:06:48;;;;;;;3.45;1.58;;;;;32.20;101747.00;;;;5084905;28;20672;-76
2022/05/15 12:09:32;;;;;;;5.32;2.00;;;;;32.10;101746.00;;;;5073496;28;20281;-76
2022/05/15 12:12:36;;;;;;;4.85;1.65;;;;;32.10;101747.00;;;;5090091;28;20567;-76
2022/05/15 12:15:13;;;;;;;4.63;1.83;;;;;32.10;101737.00;;;;5090218;28;20193;-76
2022/05/15 12:17:42;;;;;;;2.20;1.02;;;;;32.20;101743.00;;;;5090328;28;20284;-76
2022/05/15 12:20:15;;;;;;;6.00;1.90;;;;;32.20;101738.00;;;;5091084;28;20213;-76
2022/05/15 12:22:47;;;;;;;5.43;1.42;;;;;32.20;101746.00;;;;5089733;28;20199;-77
2022/05/15 12:25:16;;;;;;;5.57;1.55;;;;;32.20;101749.00;;;;5089507;28;20701;-76
2022/05/15 12:28:50;;;;;;;5.32;1.73;;;;;32.10;101745.00;;;;5088768;28;20243;-77
2022/05/15 12:30:47;;;;;;;4.22;1.60;;;;;32.20;101741.00;;;;5087734;28;20672;-77
2022/05/15 12:33:20;;;;;;;3.42;2.10;;;;;32.20;101735.00;;;;5090385;28;20213;-76
2022/05/15 12:35:47;;;;;;;2.45;1.52;;;;;32.20;101732.00;;;;5085015;28;20198;-76
2022/05/15 12:38:18;;;;;;;3.95;1.55;;;;;32.10;101734.00;;;;5070548;28;20685;-76
2022/05/15 12:41:04;;;;;;;1.50;0.93;;;;;32.00;101719.00;;;;5073468;28;20651;-76
2022/05/15 12:43:33;;;;;;;3.65;1.17;;;;;32.10;101724.00;;;;5079675;28;20594;-76
2022/05/15 12:46:04;;;;;;;2.45;1.15;;;;;32.10;101722.00;;;;5083916;28;20281;-76